sensor_id;sensor_type;location;lat;lon;timestamp;pressure;altitude;pressure_sealevel;temperature;humidity
55470;BME280;41334;47.872;16.384;2023-12-04T00:03:21;99860.66;;;-8.73;84.46
55470;BME280;41334;47.872;16.384;2023-12-04T00:08:23;99863.41;;;-8.81;83.29
55470;BME280;41334;47.872;16.384;2023-12-04T00:13:25;99855.25;;;-8.96;82.78
55470;BME280;41334;47.872;16.384;2023-12-04T00:18:27;99854.31;;;-9.12;83.19
55470;BME280;41334;47.872;16.384;2023-12-04T00:23:31;99857.41;;;-9.23;83.41
55470;BME280;41334;47.872;16.384;2023-12-04T00:28:36;99862.44;;;-9.28;83.85
55470;BME280;41334;47.872;16.384;2023-12-04T00:33:38;99849.72;;;-9.34;83.66
55470;BME280;41334;47.872;16.384;2023-12-04T00:38:40;99847.19;;;-9.35;83.90
55470;BME280;41334;47.872;16.384;2023-12-04T00:43:42;99853.75;;;-9.38;84.13
55470;BME280;41334;47.872;16.384;2023-12-04T00:48:44;99851.06;;;-9.38;84.06
55470;BME280;41334;47.872;16.384;2023-12-04T00:53:47;99858.09;;;-9.37;84.42
55470;BME280;41334;47.872;16.384;2023-12-04T00:58:49;99858.81;;;-9.43;84.23
55470;BME280;41334;47.872;16.384;2023-12-04T01:03:51;99856.31;;;-9.45;84.39
55470;BME280;41334;47.872;16.384;2023-12-04T01:08:54;99864.03;;;-9.50;84.35
55470;BME280;41334;47.872;16.384;2023-12-04T01:13:56;99858.16;;;-9.53;84.33
55470;BME280;41334;47.872;16.384;2023-12-04T01:18:58;99849.63;;;-9.57;84.31
55470;BME280;41334;47.872;16.384;2023-12-04T01:24:00;99850.78;;;-9.51;84.52
55470;BME280;41334;47.872;16.384;2023-12-04T01:29:02;99849.94;;;-9.52;84.18
55470;BME280;41334;47.872;16.384;2023-12-04T01:34:06;99853.50;;;-9.59;84.26
55470;BME280;41334;47.872;16.384;2023-12-04T01:39:08;99857.00;;;-9.67;84.29
55470;BME280;41334;47.872;16.384;2023-12-04T01:44:10;99854.34;;;-9.67;84.43
55470;BME280;41334;47.872;16.384;2023-12-04T01:49:12;99859.22;;;-9.71;84.38
55470;BME280;41334;47.872;16.384;2023-12-04T01:54:15;99853.19;;;-9.73;84.72
55470;BME280;41334;47.872;16.384;2023-12-04T01:59:18;99851.38;;;-9.72;84.66
55470;BME280;41334;47.872;16.384;2023-12-04T02:04:21;99845.50;;;-9.76;84.22
55470;BME280;41334;47.872;16.384;2023-12-04T02:09:23;99845.34;;;-9.82;84.30
55470;BME280;41334;47.872;16.384;2023-12-04T02:14:25;99836.81;;;-9.86;84.41
55470;BME280;41334;47.872;16.384;2023-12-04T02:19:27;99833.94;;;-9.84;84.46
55470;BME280;41334;47.872;16.384;2023-12-04T02:24:30;99821.88;;;-9.88;84.36
55470;BME280;41334;47.872;16.384;2023-12-04T02:29:39;99810.84;;;-9.94;84.24
55470;BME280;41334;47.872;16.384;2023-12-04T02:34:43;99812.53;;;-10.01;83.97
55470;BME280;41334;47.872;16.384;2023-12-04T02:39:46;99803.84;;;-10.03;84.05
55470;BME280;41334;47.872;16.384;2023-12-04T02:44:48;99804.19;;;-10.06;84.15
55470;BME280;41334;47.872;16.384;2023-12-04T02:49:51;99805.88;;;-10.13;83.91
55470;BME280;41334;47.872;16.384;2023-12-04T02:54:55;99810.06;;;-10.19;83.85
55470;BME280;41334;47.872;16.384;2023-12-04T02:59:57;99804.88;;;-10.20;84.07
55470;BME280;41334;47.872;16.384;2023-12-04T03:04:58;99811.41;;;-10.23;84.32
55470;BME280;41334;47.872;16.384;2023-12-04T03:10:01;99810.38;;;-10.22;84.20
55470;BME280;41334;47.872;16.384;2023-12-04T03:15:03;99805.19;;;-10.31;83.88
55470;BME280;41334;47.872;16.384;2023-12-04T03:20:07;99808.91;;;-10.32;83.86
55470;BME280;41334;47.872;16.384;2023-12-04T03:25:10;99806.22;;;-10.32;84.12
55470;BME280;41334;47.872;16.384;2023-12-04T03:30:12;99792.88;;;-10.40;83.83
55470;BME280;41334;47.872;16.384;2023-12-04T03:35:14;99805.56;;;-10.34;84.63
55470;BME280;41334;47.872;16.384;2023-12-04T03:40:16;99804.69;;;-10.27;85.42
55470;BME280;41334;47.872;16.384;2023-12-04T03:45:18;99806.38;;;-10.18;86.02
55470;BME280;41334;47.872;16.384;2023-12-04T03:50:20;99802.03;;;-10.19;86.02
55470;BME280;41334;47.872;16.384;2023-12-04T03:55:22;99790.81;;;-10.22;85.70
55470;BME280;41334;47.872;16.384;2023-12-04T04:00:24;99785.94;;;-10.27;85.46
55470;BME280;41334;47.872;16.384;2023-12-04T04:05:28;99783.44;;;-10.28;85.30
55470;BME280;41334;47.872;16.384;2023-12-04T04:10:30;99785.47;;;-10.30;85.12
55470;BME280;41334;47.872;16.384;2023-12-04T04:15:33;99781.47;;;-10.34;85.15
55470;BME280;41334;47.872;16.384;2023-12-04T04:20:35;99784.97;;;-10.34;84.98
55470;BME280;41334;47.872;16.384;2023-12-04T04:25:37;99774.63;;;-10.37;84.89
55470;BME280;41334;47.872;16.384;2023-12-04T04:30:40;99781.47;;;-10.42;84.77
55470;BME280;41334;47.872;16.384;2023-12-04T04:35:43;99775.78;;;-10.48;84.86
55470;BME280;41334;47.872;16.384;2023-12-04T04:40:45;99767.28;;;-10.51;84.74
55470;BME280;41334;47.872;16.384;2023-12-04T04:45:47;99767.28;;;-10.59;84.59
55470;BME280;41334;47.872;16.384;2023-12-04T04:50:49;99762.75;;;-10.59;84.85
55470;BME280;41334;47.872;16.384;2023-12-04T04:55:51;99762.59;;;-10.57;84.71
55470;BME280;41334;47.872;16.384;2023-12-04T05:00:53;99755.75;;;-10.68;84.42
55470;BME280;41334;47.872;16.384;2023-12-04T05:05:55;99760.94;;;-10.83;84.20
55470;BME280;41334;47.872;16.384;2023-12-04T05:10:57;99747.88;;;-10.86;84.15
55470;BME280;41334;47.872;16.384;2023-12-04T05:16:02;99747.53;;;-10.91;83.93
55470;BME280;41334;47.872;16.384;2023-12-04T05:21:08;99743.22;;;-10.84;84.33
55470;BME280;41334;47.872;16.384;2023-12-04T05:26:11;99742.84;;;-10.81;84.46
55470;BME280;41334;47.872;16.384;2023-12-04T05:31:13;99746.22;;;-10.79;84.65
55470;BME280;41334;47.872;16.384;2023-12-04T05:36:15;99743.69;;;-10.80;84.35
55470;BME280;41334;47.872;16.384;2023-12-04T05:41:17;99734.66;;;-10.87;83.97
55470;BME280;41334;47.872;16.384;2023-12-04T05:46:19;99729.66;;;-10.99;83.89
55470;BME280;41334;47.872;16.384;2023-12-04T05:51:21;99734.47;;;-11.02;83.85
55470;BME280;41334;47.872;16.384;2023-12-04T05:56:24;99734.31;;;-11.09;83.86
55470;BME280;41334;47.872;16.384;2023-12-04T06:01:26;99734.97;;;-11.07;83.95
55470;BME280;41334;47.872;16.384;2023-12-04T06:06:28;99723.59;;;-11.01;83.93
55470;BME280;41334;47.872;16.384;2023-12-04T06:11:30;99728.47;;;-10.80;84.47
55470;BME280;41334;47.872;16.384;2023-12-04T06:16:32;99725.22;;;-10.34;85.51
55470;BME280;41334;47.872;16.384;2023-12-04T06:21:34;99716.72;;;-9.91;87.28
55470;BME280;41334;47.872;16.384;2023-12-04T06:26:36;99718.91;;;-9.55;88.65
55470;BME280;41334;47.872;16.384;2023-12-04T06:31:42;99715.19;;;-9.23;89.63
55470;BME280;41334;47.872;16.384;2023-12-04T06:36:44;99708.22;;;-8.86;90.34
55470;BME280;41334;47.872;16.384;2023-12-04T06:41:46;99703.19;;;-8.51;91.09
55470;BME280;41334;47.872;16.384;2023-12-04T06:46:52;99691.38;;;-8.27;92.07
55470;BME280;41334;47.872;16.384;2023-12-04T06:51:54;99687.69;;;-8.12;91.99
55470;BME280;41334;47.872;16.384;2023-12-04T06:56:56;99692.41;;;-7.99;91.26
55470;BME280;41334;47.872;16.384;2023-12-04T07:01:58;99690.50;;;-7.84;90.65
55470;BME280;41334;47.872;16.384;2023-12-04T07:07:01;99679.91;;;-7.70;90.03
55470;BME280;41334;47.872;16.384;2023-12-04T07:12:07;99659.75;;;-7.60;89.73
55470;BME280;41334;47.872;16.384;2023-12-04T07:17:09;99660.00;;;-7.40;89.56
55470;BME280;41334;47.872;16.384;2023-12-04T07:22:11;99665.25;;;-7.32;89.14
55470;BME280;41334;47.872;16.384;2023-12-04T07:27:13;99654.81;;;-7.20;89.21
55470;BME280;41334;47.872;16.384;2023-12-04T07:32:15;99658.72;;;-7.22;88.92
55470;BME280;41334;47.872;16.384;2023-12-04T07:37:17;99654.34;;;-7.23;88.84
55470;BME280;41334;47.872;16.384;2023-12-04T07:42:19;99648.81;;;-7.22;87.78
55470;BME280;41334;47.872;16.384;2023-12-04T07:47:21;99638.72;;;-7.13;87.35
55470;BME280;41334;47.872;16.384;2023-12-04T07:52:26;99622.50;;;-6.98;86.90
55470;BME280;41334;47.872;16.384;2023-12-04T07:57:29;99630.75;;;-6.79;86.73
55470;BME280;41334;47.872;16.384;2023-12-04T08:02:31;99620.72;;;-6.63;86.29
55470;BME280;41334;47.872;16.384;2023-12-04T08:07:33;99618.09;;;-6.50;85.85
55470;BME280;41334;47.872;16.384;2023-12-04T08:12:39;99609.63;;;-6.47;85.24
55470;BME280;41334;47.872;16.384;2023-12-04T08:17:41;99601.72;;;-6.49;83.52
55470;BME280;41334;47.872;16.384;2023-12-04T08:22:43;99589.00;;;-6.27;82.97
55470;BME280;41334;47.872;16.384;2023-12-04T08:27:46;99580.56;;;-6.10;82.64
55470;BME280;41334;47.872;16.384;2023-12-04T08:32:49;99573.97;;;-6.01;81.78
55470;BME280;41334;47.872;16.384;2023-12-04T08:37:51;99567.63;;;-5.80;81.54
55470;BME280;41334;47.872;16.384;2023-12-04T08:42:54;99571.38;;;-5.68;80.91
55470;BME280;41334;47.872;16.384;2023-12-04T08:47:56;99561.66;;;-5.49;80.47
55470;BME280;41334;47.872;16.384;2023-12-04T08:52:58;99547.97;;;-5.41;80.11
55470;BME280;41334;47.872;16.384;2023-12-04T08:58:00;99545.28;;;-5.14;80.76
55470;BME280;41334;47.872;16.384;2023-12-04T09:03:02;99545.50;;;-5.09;79.74
55470;BME280;41334;47.872;16.384;2023-12-04T09:08:11;99541.53;;;-4.80;79.10
55470;BME280;41334;47.872;16.384;2023-12-04T09:13:33;99536.50;;;-4.57;78.72
55470;BME280;41334;47.872;16.384;2023-12-04T09:18:36;99514.41;;;-4.41;78.53
55470;BME280;41334;47.872;16.384;2023-12-04T09:23:38;99503.97;;;-4.30;78.41
55470;BME280;41334;47.872;16.384;2023-12-04T09:28:40;99494.56;;;-4.21;78.31
55470;BME280;41334;47.872;16.384;2023-12-04T09:33:42;99470.19;;;-4.15;77.57
55470;BME280;41334;47.872;16.384;2023-12-04T09:38:44;99467.97;;;-3.93;77.56
55470;BME280;41334;47.872;16.384;2023-12-04T09:43:47;99464.94;;;-3.71;76.53
55470;BME280;41334;47.872;16.384;2023-12-04T09:48:50;99448.66;;;-3.40;75.87
55470;BME280;41334;47.872;16.384;2023-12-04T09:53:54;99433.78;;;-3.30;76.05
55470;BME280;41334;47.872;16.384;2023-12-04T09:58:59;99415.06;;;-3.14;76.01
55470;BME280;41334;47.872;16.384;2023-12-04T10:04:02;99395.59;;;-3.04;74.89
55470;BME280;41334;47.872;16.384;2023-12-04T10:09:06;99393.88;;;-2.98;75.18
55470;BME280;41334;47.872;16.384;2023-12-04T10:14:20;99374.66;;;-2.97;75.43
55470;BME280;41334;47.872;16.384;2023-12-04T10:19:27;99350.03;;;-2.77;75.78
55470;BME280;41334;47.872;16.384;2023-12-04T10:24:31;99336.03;;;-2.44;74.64
55470;BME280;41334;47.872;16.384;2023-12-04T10:29:43;99327.22;;;-2.28;74.57
55470;BME280;41334;47.872;16.384;2023-12-04T10:34:45;99314.22;;;-1.95;73.54
55470;BME280;41334;47.872;16.384;2023-12-04T10:39:49;99297.81;;;-1.65;70.74
55470;BME280;41334;47.872;16.384;2023-12-04T10:44:54;99289.53;;;-1.24;69.00
55470;BME280;41334;47.872;16.384;2023-12-04T10:49:57;99258.03;;;-0.96;68.32
55470;BME280;41334;47.872;16.384;2023-12-04T10:54:59;99244.00;;;-0.76;67.73
55470;BME280;41334;47.872;16.384;2023-12-04T11:00:05;99243.47;;;-0.61;66.64
55470;BME280;41334;47.872;16.384;2023-12-04T11:05:13;99228.38;;;-0.52;65.84
55470;BME280;41334;47.872;16.384;2023-12-04T11:10:22;99224.66;;;-0.46;65.97
55470;BME280;41334;47.872;16.384;2023-12-04T11:15:28;99196.13;;;-0.60;65.42
55470;BME280;41334;47.872;16.384;2023-12-04T11:20:41;99192.97;;;-0.69;63.60
55470;BME280;41334;47.872;16.384;2023-12-04T11:25:46;99195.44;;;-0.67;64.06
55470;BME280;41334;47.872;16.384;2023-12-04T11:30:49;99191.81;;;-0.56;65.49
55470;BME280;41334;47.872;16.384;2023-12-04T11:35:52;99179.72;;;-0.49;65.72
55470;BME280;41334;47.872;16.384;2023-12-04T11:40:54;99167.47;;;-0.34;64.59
55470;BME280;41334;47.872;16.384;2023-12-04T11:46:10;99164.63;;;-0.23;63.59
55470;BME280;41334;47.872;16.384;2023-12-04T11:51:15;99155.38;;;-0.05;63.25
55470;BME280;41334;47.872;16.384;2023-12-04T11:56:37;99139.16;;;-0.33;63.64
55470;BME280;41334;47.872;16.384;2023-12-04T12:01:39;99122.16;;;-0.40;61.96
55470;BME280;41334;47.872;16.384;2023-12-04T12:06:44;99105.19;;;-0.64;62.28
55470;BME280;41334;47.872;16.384;2023-12-04T12:11:46;99109.97;;;-0.72;62.31
55470;BME280;41334;47.872;16.384;2023-12-04T13:59:10;98985.09;;;-0.90;66.35
55470;BME280;41334;47.872;16.384;2023-12-04T14:04:20;98987.34;;;-1.04;65.81
55470;BME280;41334;47.872;16.384;2023-12-04T14:09:22;98997.47;;;-1.16;65.75
55470;BME280;41334;47.872;16.384;2023-12-04T14:14:25;99008.94;;;-1.31;66.16
55470;BME280;41334;47.872;16.384;2023-12-04T14:19:30;99009.56;;;-1.40;67.31
55470;BME280;41334;47.872;16.384;2023-12-04T14:35:57;98995.13;;;-1.58;68.08
55470;BME280;41334;47.872;16.384;2023-12-04T14:41:10;99005.06;;;-1.63;69.47
55470;BME280;41334;47.872;16.384;2023-12-04T14:46:14;99017.31;;;-1.78;70.99
55470;BME280;41334;47.872;16.384;2023-12-04T14:51:17;98993.84;;;-1.84;70.89
55470;BME280;41334;47.872;16.384;2023-12-04T14:57:17;98981.56;;;-1.86;69.93
55470;BME280;41334;47.872;16.384;2023-12-04T15:02:21;98951.88;;;-1.76;69.97
55470;BME280;41334;47.872;16.384;2023-12-04T15:09:10;98960.09;;;-1.88;71.12
55470;BME280;41334;47.872;16.384;2023-12-04T15:15:07;98929.63;;;-1.90;71.13
55470;BME280;41334;47.872;16.384;2023-12-04T15:21:21;98928.97;;;-1.97;72.39
55470;BME280;41334;47.872;16.384;2023-12-04T15:26:58;98923.44;;;-2.02;73.04
55470;BME280;41334;47.872;16.384;2023-12-04T15:32:38;98925.34;;;-2.03;72.11
55470;BME280;41334;47.872;16.384;2023-12-04T15:37:40;98926.34;;;-1.92;72.08
55470;BME280;41334;47.872;16.384;2023-12-04T15:42:42;98925.78;;;-1.94;71.66
55470;BME280;41334;47.872;16.384;2023-12-04T15:47:44;98917.38;;;-1.92;71.44
55470;BME280;41334;47.872;16.384;2023-12-04T15:52:46;98926.44;;;-1.87;71.62
55470;BME280;41334;47.872;16.384;2023-12-04T15:57:48;98933.03;;;-1.83;71.77
55470;BME280;41334;47.872;16.384;2023-12-04T16:02:57;98933.75;;;-1.87;72.34
55470;BME280;41334;47.872;16.384;2023-12-04T16:07:59;98937.13;;;-1.80;72.14
55470;BME280;41334;47.872;16.384;2023-12-04T16:13:02;98940.47;;;-1.78;72.03
55470;BME280;41334;47.872;16.384;2023-12-04T16:18:04;98944.56;;;-1.76;71.62
55470;BME280;41334;47.872;16.384;2023-12-04T16:23:08;98942.50;;;-1.68;71.49
55470;BME280;41334;47.872;16.384;2023-12-04T16:28:10;98934.44;;;-1.80;70.47
55470;BME280;41334;47.872;16.384;2023-12-04T16:33:13;98942.34;;;-1.79;71.36
55470;BME280;41334;47.872;16.384;2023-12-04T16:38:15;98935.97;;;-1.84;71.88
55470;BME280;41334;47.872;16.384;2023-12-04T16:43:17;98919.38;;;-1.88;71.72
55470;BME280;41334;47.872;16.384;2023-12-04T16:48:19;98900.47;;;-1.83;71.89
55470;BME280;41334;47.872;16.384;2023-12-04T16:53:21;98909.91;;;-1.85;70.58
55470;BME280;41334;47.872;16.384;2023-12-04T16:58:24;98905.88;;;-1.83;70.91
55470;BME280;41334;47.872;16.384;2023-12-04T17:03:25;98903.66;;;-1.86;70.20
55470;BME280;41334;47.872;16.384;2023-12-04T17:08:28;98920.53;;;-1.84;70.68
55470;BME280;41334;47.872;16.384;2023-12-04T17:13:30;98914.25;;;-1.84;70.42
55470;BME280;41334;47.872;16.384;2023-12-04T17:18:32;98903.97;;;-1.99;70.65
55470;BME280;41334;47.872;16.384;2023-12-04T17:23:34;98918.94;;;-1.96;71.28
55470;BME280;41334;47.872;16.384;2023-12-04T17:28:36;98910.94;;;-2.03;70.05
55470;BME280;41334;47.872;16.384;2023-12-04T17:33:38;98905.78;;;-2.05;68.45
55470;BME280;41334;47.872;16.384;2023-12-04T17:38:40;98892.03;;;-1.98;68.86
55470;BME280;41334;47.872;16.384;2023-12-04T17:43:44;98885.88;;;-1.93;68.91
55470;BME280;41334;47.872;16.384;2023-12-04T17:48:46;98891.53;;;-1.95;68.82
55470;BME280;41334;47.872;16.384;2023-12-04T17:53:51;98898.28;;;-1.97;67.66
55470;BME280;41334;47.872;16.384;2023-12-04T17:58:53;98907.25;;;-1.97;67.82
55470;BME280;41334;47.872;16.384;2023-12-04T18:03:55;98903.16;;;-1.99;67.27
55470;BME280;41334;47.872;16.384;2023-12-04T18:08:58;98885.53;;;-1.97;67.51
55470;BME280;41334;47.872;16.384;2023-12-04T18:14:00;98872.94;;;-2.03;67.53
55470;BME280;41334;47.872;16.384;2023-12-04T18:19:02;98849.16;;;-1.96;67.49
55470;BME280;41334;47.872;16.384;2023-12-04T18:24:05;98829.03;;;-2.00;68.14
55470;BME280;41334;47.872;16.384;2023-12-04T18:29:11;98824.19;;;-1.98;67.53
55470;BME280;41334;47.872;16.384;2023-12-04T18:34:13;98850.16;;;-2.02;67.57
55470;BME280;41334;47.872;16.384;2023-12-04T18:39:16;98858.13;;;-1.95;67.90
55470;BME280;41334;47.872;16.384;2023-12-04T18:44:20;98855.34;;;-2.01;66.39
55470;BME280;41334;47.872;16.384;2023-12-04T18:49:25;98858.97;;;-1.95;66.68
55470;BME280;41334;47.872;16.384;2023-12-04T18:54:27;98876.31;;;-1.96;67.32
55470;BME280;41334;47.872;16.384;2023-12-04T18:59:29;98873.84;;;-1.97;66.81
55470;BME280;41334;47.872;16.384;2023-12-04T19:04:31;98838.31;;;-1.96;68.45
55470;BME280;41334;47.872;16.384;2023-12-04T19:09:36;98833.13;;;-1.97;68.00
55470;BME280;41334;47.872;16.384;2023-12-04T19:14:39;98810.94;;;-1.94;69.07
55470;BME280;41334;47.872;16.384;2023-12-04T19:19:41;98801.94;;;-1.95;68.51
55470;BME280;41334;47.872;16.384;2023-12-04T19:24:43;98794.78;;;-2.01;68.82
55470;BME280;41334;47.872;16.384;2023-12-04T19:29:45;98784.53;;;-1.99;69.62
55470;BME280;41334;47.872;16.384;2023-12-04T19:34:47;98783.47;;;-1.98;68.86
55470;BME280;41334;47.872;16.384;2023-12-04T19:39:49;98780.81;;;-1.93;68.06
55470;BME280;41334;47.872;16.384;2023-12-04T19:44:51;98778.19;;;-1.88;67.77
55470;BME280;41334;47.872;16.384;2023-12-04T19:49:55;98765.91;;;-1.90;67.36
55470;BME280;41334;47.872;16.384;2023-12-04T19:54:57;98767.06;;;-1.86;67.89
55470;BME280;41334;47.872;16.384;2023-12-04T19:59:59;98765.84;;;-1.95;68.64
55470;BME280;41334;47.872;16.384;2023-12-04T20:05:12;98742.75;;;-1.98;69.76
55470;BME280;41334;47.872;16.384;2023-12-04T20:10:15;98758.69;;;-2.02;69.93
55470;BME280;41334;47.872;16.384;2023-12-04T20:15:18;98758.13;;;-2.04;68.84
55470;BME280;41334;47.872;16.384;2023-12-04T20:20:20;98739.31;;;-2.10;69.57
55470;BME280;41334;47.872;16.384;2023-12-04T20:25:23;98757.44;;;-2.11;70.20
55470;BME280;41334;47.872;16.384;2023-12-04T20:30:28;98756.63;;;-2.11;70.28
55470;BME280;41334;47.872;16.384;2023-12-04T20:35:32;98742.50;;;-2.13;70.08
55470;BME280;41334;47.872;16.384;2023-12-04T20:40:35;98717.66;;;-2.22;70.92
55470;BME280;41334;47.872;16.384;2023-12-04T20:45:37;98729.66;;;-2.35;71.69
55470;BME280;41334;47.872;16.384;2023-12-04T20:50:39;98756.31;;;-2.32;71.96
55470;BME280;41334;47.872;16.384;2023-12-04T20:55:42;98755.81;;;-2.29;72.33
55470;BME280;41334;47.872;16.384;2023-12-04T21:00:45;98742.16;;;-2.34;72.84
55470;BME280;41334;47.872;16.384;2023-12-04T21:05:47;98741.84;;;-2.37;73.15
55470;BME280;41334;47.872;16.384;2023-12-04T21:10:49;98730.16;;;-2.38;73.99
55470;BME280;41334;47.872;16.384;2023-12-04T21:15:51;98734.44;;;-2.42;74.13
55470;BME280;41334;47.872;16.384;2023-12-04T21:20:53;98722.91;;;-2.49;74.83
55470;BME280;41334;47.872;16.384;2023-12-04T21:25:57;98707.78;;;-2.45;74.96
55470;BME280;41334;47.872;16.384;2023-12-04T21:30:59;98714.22;;;-2.51;75.18
55470;BME280;41334;47.872;16.384;2023-12-04T21:36:01;98717.66;;;-2.56;76.04
55470;BME280;41334;47.872;16.384;2023-12-04T21:41:04;98702.94;;;-2.60;76.50
55470;BME280;41334;47.872;16.384;2023-12-04T21:46:06;98709.69;;;-2.62;77.16
55470;BME280;41334;47.872;16.384;2023-12-04T21:51:08;98706.88;;;-2.67;76.56
55470;BME280;41334;47.872;16.384;2023-12-04T21:56:10;98686.66;;;-2.76;77.16
55470;BME280;41334;47.872;16.384;2023-12-04T22:01:13;98679.34;;;-2.76;77.50
55470;BME280;41334;47.872;16.384;2023-12-04T22:06:15;98675.25;;;-2.78;77.54
55470;BME280;41334;47.872;16.384;2023-12-04T22:11:18;98673.69;;;-2.74;78.23
55470;BME280;41334;47.872;16.384;2023-12-04T22:16:21;98672.03;;;-2.75;78.08
55470;BME280;41334;47.872;16.384;2023-12-04T22:21:23;98677.13;;;-2.79;78.32
55470;BME280;41334;47.872;16.384;2023-12-04T22:26:25;98675.41;;;-2.85;78.45
55470;BME280;41334;47.872;16.384;2023-12-04T22:31:27;98675.63;;;-2.87;78.88
55470;BME280;41334;47.872;16.384;2023-12-04T22:36:29;98672.00;;;-2.92;79.11
55470;BME280;41334;47.872;16.384;2023-12-04T22:41:32;98654.34;;;-2.95;79.19
55470;BME280;41334;47.872;16.384;2023-12-04T22:46:33;98647.50;;;-2.97;79.36
55470;BME280;41334;47.872;16.384;2023-12-04T22:51:36;98633.41;;;-2.99;79.26
55470;BME280;41334;47.872;16.384;2023-12-04T22:56:37;98639.38;;;-2.97;79.68
55470;BME280;41334;47.872;16.384;2023-12-04T23:01:40;98643.31;;;-3.05;80.40
55470;BME280;41334;47.872;16.384;2023-12-04T23:06:43;98638.97;;;-3.06;80.11
55470;BME280;41334;47.872;16.384;2023-12-04T23:11:45;98641.44;;;-3.04;80.97
55470;BME280;41334;47.872;16.384;2023-12-04T23:16:47;98637.81;;;-3.10;81.43
55470;BME280;41334;47.872;16.384;2023-12-04T23:21:49;98640.53;;;-3.10;81.55
55470;BME280;41334;47.872;16.384;2023-12-04T23:26:51;98637.91;;;-3.05;81.20
55470;BME280;41334;47.872;16.384;2023-12-04T23:31:53;98650.72;;;-3.00;81.61
55470;BME280;41334;47.872;16.384;2023-12-04T23:36:55;98634.59;;;-3.07;81.24
55470;BME280;41334;47.872;16.384;2023-12-04T23:41:57;98638.06;;;-3.12;82.08
55470;BME280;41334;47.872;16.384;2023-12-04T23:46:59;98633.38;;;-3.16;82.16
55470;BME280;41334;47.872;16.384;2023-12-04T23:52:01;98641.53;;;-3.28;83.28
55470;BME280;41334;47.872;16.384;2023-12-04T23:57:03;98625.53;;;-3.29;83.58
